sensor_id;sensor_type;location;lat;lon;timestamp;P1;durP1;ratioP1;P2;durP2;ratioP2
16979;SDS011;42288;52.182;21.156;2022-07-23T00:00:28;22.00;;;14.37;;
16979;SDS011;42288;52.182;21.156;2022-07-23T00:02:54;18.13;;;13.93;;
16979;SDS011;42288;52.182;21.156;2022-07-23T00:05:19;20.50;;;14.53;;
16979;SDS011;42288;52.182;21.156;2022-07-23T00:07:45;25.00;;;15.70;;
16979;SDS011;42288;52.182;21.156;2022-07-23T00:10:10;18.90;;;14.10;;
16979;SDS011;42288;52.182;21.156;2022-07-23T00:12:36;20.60;;;13.73;;
16979;SDS011;42288;52.182;21.156;2022-07-23T00:15:03;17.17;;;14.20;;
16979;SDS011;42288;52.182;21.156;2022-07-23T00:17:30;26.33;;;14.53;;
16979;SDS011;42288;52.182;21.156;2022-07-23T00:19:55;21.70;;;14.63;;
16979;SDS011;42288;52.182;21.156;2022-07-23T00:22:21;19.00;;;14.40;;
16979;SDS011;42288;52.182;21.156;2022-07-23T00:24:46;27.80;;;16.67;;
16979;SDS011;42288;52.182;21.156;2022-07-23T00:27:12;21.43;;;15.60;;
16979;SDS011;42288;52.182;21.156;2022-07-23T00:29:37;23.47;;;14.83;;
16979;SDS011;42288;52.182;21.156;2022-07-23T00:32:03;23.00;;;15.23;;
16979;SDS011;42288;52.182;21.156;2022-07-23T00:34:29;22.63;;;15.53;;
16979;SDS011;42288;52.182;21.156;2022-07-23T00:36:54;20.57;;;15.43;;
16979;SDS011;42288;52.182;21.156;2022-07-23T00:39:20;20.63;;;14.93;;
16979;SDS011;42288;52.182;21.156;2022-07-23T00:41:47;19.80;;;15.00;;
16979;SDS011;42288;52.182;21.156;2022-07-23T00:44:17;21.20;;;14.70;;
16979;SDS011;42288;52.182;21.156;2022-07-23T00:46:45;25.70;;;15.60;;
16979;SDS011;42288;52.182;21.156;2022-07-23T00:49:22;21.10;;;15.00;;
16979;SDS011;42288;52.182;21.156;2022-07-23T00:51:49;21.17;;;14.93;;
16979;SDS011;42288;52.182;21.156;2022-07-23T00:54:16;21.53;;;13.43;;
16979;SDS011;42288;52.182;21.156;2022-07-23T00:56:43;19.20;;;13.10;;
16979;SDS011;42288;52.182;21.156;2022-07-23T00:59:09;21.63;;;14.73;;
16979;SDS011;42288;52.182;21.156;2022-07-23T01:01:35;21.30;;;14.00;;
16979;SDS011;42288;52.182;21.156;2022-07-23T01:04:01;23.30;;;14.53;;
16979;SDS011;42288;52.182;21.156;2022-07-23T01:06:26;77.17;;;16.80;;
16979;SDS011;42288;52.182;21.156;2022-07-23T01:08:56;36.93;;;14.90;;
16979;SDS011;42288;52.182;21.156;2022-07-23T01:11:22;27.20;;;14.60;;
16979;SDS011;42288;52.182;21.156;2022-07-23T01:13:49;18.17;;;13.23;;
16979;SDS011;42288;52.182;21.156;2022-07-23T01:16:15;19.50;;;14.23;;
16979;SDS011;42288;52.182;21.156;2022-07-23T01:18:40;18.27;;;13.27;;
16979;SDS011;42288;52.182;21.156;2022-07-23T01:21:06;18.33;;;13.67;;
16979;SDS011;42288;52.182;21.156;2022-07-23T01:23:34;21.33;;;13.57;;
16979;SDS011;42288;52.182;21.156;2022-07-23T01:25:59;17.97;;;12.90;;
16979;SDS011;42288;52.182;21.156;2022-07-23T01:28:24;22.33;;;15.80;;
16979;SDS011;42288;52.182;21.156;2022-07-23T01:30:50;21.67;;;14.53;;
16979;SDS011;42288;52.182;21.156;2022-07-23T01:33:16;18.37;;;13.70;;
16979;SDS011;42288;52.182;21.156;2022-07-23T01:35:41;22.90;;;14.73;;
16979;SDS011;42288;52.182;21.156;2022-07-23T01:38:07;22.37;;;14.87;;
16979;SDS011;42288;52.182;21.156;2022-07-23T01:40:32;21.47;;;14.70;;
16979;SDS011;42288;52.182;21.156;2022-07-23T01:42:58;22.77;;;15.00;;
16979;SDS011;42288;52.182;21.156;2022-07-23T01:45:23;19.30;;;14.37;;
16979;SDS011;42288;52.182;21.156;2022-07-23T01:47:49;21.23;;;13.47;;
16979;SDS011;42288;52.182;21.156;2022-07-23T01:50:14;21.43;;;14.07;;
16979;SDS011;42288;52.182;21.156;2022-07-23T01:52:40;20.20;;;14.40;;
16979;SDS011;42288;52.182;21.156;2022-07-23T01:55:06;22.20;;;14.60;;
16979;SDS011;42288;52.182;21.156;2022-07-23T01:57:33;19.27;;;14.63;;
16979;SDS011;42288;52.182;21.156;2022-07-23T01:59:59;20.53;;;14.10;;
16979;SDS011;42288;52.182;21.156;2022-07-23T02:02:24;21.70;;;14.33;;
16979;SDS011;42288;52.182;21.156;2022-07-23T02:04:50;19.47;;;13.87;;
16979;SDS011;42288;52.182;21.156;2022-07-23T02:07:15;21.97;;;15.17;;
16979;SDS011;42288;52.182;21.156;2022-07-23T02:09:41;25.27;;;15.10;;
16979;SDS011;42288;52.182;21.156;2022-07-23T02:12:07;24.77;;;14.90;;
16979;SDS011;42288;52.182;21.156;2022-07-23T02:14:32;28.30;;;15.57;;
16979;SDS011;42288;52.182;21.156;2022-07-23T02:16:58;22.67;;;14.43;;
16979;SDS011;42288;52.182;21.156;2022-07-23T02:19:24;22.00;;;14.27;;
16979;SDS011;42288;52.182;21.156;2022-07-23T02:21:50;21.53;;;16.80;;
16979;SDS011;42288;52.182;21.156;2022-07-23T02:24:15;22.13;;;15.63;;
16979;SDS011;42288;52.182;21.156;2022-07-23T02:26:41;17.37;;;13.70;;
16979;SDS011;42288;52.182;21.156;2022-07-23T02:29:07;19.03;;;14.37;;
16979;SDS011;42288;52.182;21.156;2022-07-23T02:31:32;22.77;;;14.00;;
16979;SDS011;42288;52.182;21.156;2022-07-23T02:33:58;22.53;;;14.37;;
16979;SDS011;42288;52.182;21.156;2022-07-23T02:36:24;19.20;;;13.93;;
16979;SDS011;42288;52.182;21.156;2022-07-23T02:38:49;20.50;;;15.20;;
16979;SDS011;42288;52.182;21.156;2022-07-23T02:41:15;21.80;;;14.10;;
16979;SDS011;42288;52.182;21.156;2022-07-23T02:43:41;21.23;;;14.53;;
16979;SDS011;42288;52.182;21.156;2022-07-23T02:46:06;20.23;;;13.73;;
16979;SDS011;42288;52.182;21.156;2022-07-23T02:48:32;18.37;;;13.23;;
16979;SDS011;42288;52.182;21.156;2022-07-23T02:50:58;21.10;;;14.13;;
16979;SDS011;42288;52.182;21.156;2022-07-23T02:53:23;20.43;;;14.07;;
16979;SDS011;42288;52.182;21.156;2022-07-23T02:55:49;19.77;;;14.43;;
16979;SDS011;42288;52.182;21.156;2022-07-23T02:58:15;20.70;;;15.93;;
16979;SDS011;42288;52.182;21.156;2022-07-23T03:00:40;16.83;;;13.77;;
16979;SDS011;42288;52.182;21.156;2022-07-23T03:03:06;17.13;;;13.27;;
16979;SDS011;42288;52.182;21.156;2022-07-23T03:05:32;18.23;;;13.57;;
16979;SDS011;42288;52.182;21.156;2022-07-23T03:07:58;17.50;;;12.93;;
16979;SDS011;42288;52.182;21.156;2022-07-23T03:10:23;18.87;;;13.90;;
16979;SDS011;42288;52.182;21.156;2022-07-23T03:12:49;17.03;;;13.13;;
16979;SDS011;42288;52.182;21.156;2022-07-23T03:15:14;18.87;;;14.13;;
16979;SDS011;42288;52.182;21.156;2022-07-23T03:17:40;18.90;;;14.47;;
16979;SDS011;42288;52.182;21.156;2022-07-23T03:20:06;17.10;;;13.63;;
16979;SDS011;42288;52.182;21.156;2022-07-23T03:22:32;18.57;;;13.67;;
16979;SDS011;42288;52.182;21.156;2022-07-23T03:24:57;20.17;;;14.23;;
16979;SDS011;42288;52.182;21.156;2022-07-23T03:27:24;16.33;;;13.27;;
16979;SDS011;42288;52.182;21.156;2022-07-23T03:29:51;18.17;;;14.17;;
16979;SDS011;42288;52.182;21.156;2022-07-23T03:32:18;19.33;;;13.80;;
16979;SDS011;42288;52.182;21.156;2022-07-23T03:34:43;19.67;;;14.70;;
16979;SDS011;42288;52.182;21.156;2022-07-23T03:37:09;15.47;;;13.23;;
16979;SDS011;42288;52.182;21.156;2022-07-23T03:39:35;17.83;;;13.63;;
16979;SDS011;42288;52.182;21.156;2022-07-23T03:42:00;18.10;;;13.60;;
16979;SDS011;42288;52.182;21.156;2022-07-23T03:44:26;19.50;;;14.03;;
16979;SDS011;42288;52.182;21.156;2022-07-23T03:46:51;20.47;;;14.80;;
16979;SDS011;42288;52.182;21.156;2022-07-23T03:49:17;22.03;;;13.60;;
16979;SDS011;42288;52.182;21.156;2022-07-23T03:51:43;18.90;;;14.27;;
16979;SDS011;42288;52.182;21.156;2022-07-23T03:54:08;25.97;;;15.03;;
16979;SDS011;42288;52.182;21.156;2022-07-23T03:56:34;26.17;;;15.40;;
16979;SDS011;42288;52.182;21.156;2022-07-23T03:58:59;26.07;;;15.23;;
16979;SDS011;42288;52.182;21.156;2022-07-23T04:01:25;19.57;;;14.53;;
16979;SDS011;42288;52.182;21.156;2022-07-23T04:03:50;19.90;;;15.07;;
16979;SDS011;42288;52.182;21.156;2022-07-23T04:06:16;18.67;;;13.70;;
16979;SDS011;42288;52.182;21.156;2022-07-23T04:08:42;18.87;;;15.60;;
16979;SDS011;42288;52.182;21.156;2022-07-23T04:11:07;21.17;;;16.57;;
16979;SDS011;42288;52.182;21.156;2022-07-23T04:13:33;22.73;;;17.30;;
16979;SDS011;42288;52.182;21.156;2022-07-23T04:15:58;22.37;;;15.70;;
16979;SDS011;42288;52.182;21.156;2022-07-23T04:18:24;19.40;;;16.40;;
16979;SDS011;42288;52.182;21.156;2022-07-23T04:20:52;20.00;;;16.30;;
16979;SDS011;42288;52.182;21.156;2022-07-23T04:23:18;18.87;;;14.97;;
16979;SDS011;42288;52.182;21.156;2022-07-23T04:25:44;22.10;;;15.20;;
16979;SDS011;42288;52.182;21.156;2022-07-23T04:28:09;21.30;;;15.67;;
16979;SDS011;42288;52.182;21.156;2022-07-23T04:30:35;20.90;;;16.13;;
16979;SDS011;42288;52.182;21.156;2022-07-23T04:33:01;23.13;;;17.13;;
16979;SDS011;42288;52.182;21.156;2022-07-23T04:35:30;22.03;;;15.47;;
16979;SDS011;42288;52.182;21.156;2022-07-23T04:37:56;22.47;;;16.53;;
16979;SDS011;42288;52.182;21.156;2022-07-23T04:40:21;21.23;;;16.03;;
16979;SDS011;42288;52.182;21.156;2022-07-23T04:42:46;21.03;;;14.33;;
16979;SDS011;42288;52.182;21.156;2022-07-23T04:45:12;23.50;;;15.80;;
16979;SDS011;42288;52.182;21.156;2022-07-23T04:47:38;21.17;;;14.47;;
16979;SDS011;42288;52.182;21.156;2022-07-23T04:50:03;21.53;;;14.80;;
16979;SDS011;42288;52.182;21.156;2022-07-23T04:52:29;20.70;;;14.73;;
16979;SDS011;42288;52.182;21.156;2022-07-23T04:54:54;24.03;;;15.30;;
16979;SDS011;42288;52.182;21.156;2022-07-23T04:57:20;18.83;;;13.53;;
16979;SDS011;42288;52.182;21.156;2022-07-23T04:59:45;16.57;;;13.00;;
16979;SDS011;42288;52.182;21.156;2022-07-23T05:02:11;17.60;;;12.03;;
16979;SDS011;42288;52.182;21.156;2022-07-23T05:04:36;17.90;;;11.87;;
16979;SDS011;42288;52.182;21.156;2022-07-23T05:07:03;19.63;;;12.37;;
16979;SDS011;42288;52.182;21.156;2022-07-23T05:09:29;18.03;;;12.20;;
16979;SDS011;42288;52.182;21.156;2022-07-23T05:11:54;18.57;;;11.90;;
16979;SDS011;42288;52.182;21.156;2022-07-23T05:14:20;16.53;;;11.37;;
16979;SDS011;42288;52.182;21.156;2022-07-23T05:16:45;17.73;;;11.77;;
16979;SDS011;42288;52.182;21.156;2022-07-23T05:19:11;18.90;;;11.50;;
16979;SDS011;42288;52.182;21.156;2022-07-23T05:21:36;14.67;;;11.30;;
16979;SDS011;42288;52.182;21.156;2022-07-23T05:24:02;16.48;;;11.18;;
16979;SDS011;42288;52.182;21.156;2022-07-23T05:26:28;17.80;;;10.95;;
16979;SDS011;42288;52.182;21.156;2022-07-23T05:28:53;16.15;;;10.68;;
16979;SDS011;42288;52.182;21.156;2022-07-23T05:31:19;15.30;;;11.23;;
16979;SDS011;42288;52.182;21.156;2022-07-23T05:33:44;16.55;;;10.93;;
16979;SDS011;42288;52.182;21.156;2022-07-23T05:36:10;16.57;;;10.60;;
16979;SDS011;42288;52.182;21.156;2022-07-23T05:38:36;16.88;;;10.95;;
16979;SDS011;42288;52.182;21.156;2022-07-23T05:41:01;12.67;;;10.47;;
16979;SDS011;42288;52.182;21.156;2022-07-23T05:43:27;14.82;;;11.10;;
16979;SDS011;42288;52.182;21.156;2022-07-23T05:45:53;13.37;;;10.37;;
16979;SDS011;42288;52.182;21.156;2022-07-23T05:48:19;15.07;;;10.67;;
16979;SDS011;42288;52.182;21.156;2022-07-23T05:50:45;16.95;;;11.15;;
16979;SDS011;42288;52.182;21.156;2022-07-23T05:53:11;16.83;;;9.33;;
16979;SDS011;42288;52.182;21.156;2022-07-23T05:55:37;13.13;;;9.93;;
16979;SDS011;42288;52.182;21.156;2022-07-23T05:58:02;19.27;;;9.97;;
16979;SDS011;42288;52.182;21.156;2022-07-23T06:00:28;14.90;;;9.23;;
16979;SDS011;42288;52.182;21.156;2022-07-23T06:02:54;15.53;;;9.43;;
16979;SDS011;42288;52.182;21.156;2022-07-23T06:05:19;12.43;;;9.05;;
16979;SDS011;42288;52.182;21.156;2022-07-23T06:07:45;14.27;;;9.27;;
16979;SDS011;42288;52.182;21.156;2022-07-23T06:10:11;15.30;;;9.70;;
16979;SDS011;42288;52.182;21.156;2022-07-23T06:12:36;19.73;;;10.25;;
16979;SDS011;42288;52.182;21.156;2022-07-23T06:15:03;16.03;;;9.43;;
16979;SDS011;42288;52.182;21.156;2022-07-23T06:17:29;15.70;;;8.82;;
16979;SDS011;42288;52.182;21.156;2022-07-23T06:19:55;12.30;;;9.77;;
16979;SDS011;42288;52.182;21.156;2022-07-23T06:22:20;15.75;;;9.40;;
16979;SDS011;42288;52.182;21.156;2022-07-23T06:24:47;11.68;;;9.68;;
16979;SDS011;42288;52.182;21.156;2022-07-23T06:27:13;12.65;;;8.60;;
16979;SDS011;42288;52.182;21.156;2022-07-23T06:29:38;18.17;;;9.32;;
16979;SDS011;42288;52.182;21.156;2022-07-23T06:32:05;13.82;;;9.48;;
16979;SDS011;42288;52.182;21.156;2022-07-23T06:34:31;12.18;;;8.82;;
16979;SDS011;42288;52.182;21.156;2022-07-23T06:36:57;13.80;;;9.32;;
16979;SDS011;42288;52.182;21.156;2022-07-23T06:39:23;20.60;;;9.35;;
16979;SDS011;42288;52.182;21.156;2022-07-23T06:41:48;16.73;;;9.13;;
16979;SDS011;42288;52.182;21.156;2022-07-23T06:44:14;10.52;;;8.80;;
16979;SDS011;42288;52.182;21.156;2022-07-23T06:46:40;15.95;;;9.80;;
16979;SDS011;42288;52.182;21.156;2022-07-23T06:49:05;15.73;;;9.35;;
16979;SDS011;42288;52.182;21.156;2022-07-23T06:51:31;12.85;;;8.45;;
16979;SDS011;42288;52.182;21.156;2022-07-23T06:53:57;13.23;;;8.93;;
16979;SDS011;42288;52.182;21.156;2022-07-23T06:56:23;15.50;;;9.07;;
16979;SDS011;42288;52.182;21.156;2022-07-23T06:58:49;12.18;;;9.15;;
16979;SDS011;42288;52.182;21.156;2022-07-23T07:01:14;11.50;;;9.15;;
16979;SDS011;42288;52.182;21.156;2022-07-23T07:03:40;12.43;;;9.48;;
16979;SDS011;42288;52.182;21.156;2022-07-23T07:06:05;10.82;;;8.50;;
16979;SDS011;42288;52.182;21.156;2022-07-23T07:08:31;11.35;;;7.93;;
16979;SDS011;42288;52.182;21.156;2022-07-23T07:10:56;10.85;;;8.88;;
16979;SDS011;42288;52.182;21.156;2022-07-23T07:13:22;12.30;;;8.73;;
16979;SDS011;42288;52.182;21.156;2022-07-23T07:15:47;15.77;;;8.68;;
16979;SDS011;42288;52.182;21.156;2022-07-23T07:18:13;10.30;;;7.68;;
16979;SDS011;42288;52.182;21.156;2022-07-23T07:20:38;10.75;;;8.25;;
16979;SDS011;42288;52.182;21.156;2022-07-23T07:23:04;13.18;;;8.95;;
16979;SDS011;42288;52.182;21.156;2022-07-23T07:25:29;14.20;;;7.82;;
16979;SDS011;42288;52.182;21.156;2022-07-23T07:27:55;14.35;;;8.77;;
16979;SDS011;42288;52.182;21.156;2022-07-23T07:30:20;10.88;;;8.77;;
16979;SDS011;42288;52.182;21.156;2022-07-23T07:32:46;11.88;;;8.65;;
16979;SDS011;42288;52.182;21.156;2022-07-23T07:35:12;10.32;;;7.70;;
16979;SDS011;42288;52.182;21.156;2022-07-23T07:37:38;13.05;;;9.02;;
16979;SDS011;42288;52.182;21.156;2022-07-23T07:40:03;14.10;;;7.57;;
16979;SDS011;42288;52.182;21.156;2022-07-23T07:42:29;12.05;;;7.88;;
16979;SDS011;42288;52.182;21.156;2022-07-23T07:44:57;14.75;;;7.65;;
16979;SDS011;42288;52.182;21.156;2022-07-23T07:47:22;11.27;;;7.57;;
16979;SDS011;42288;52.182;21.156;2022-07-23T07:49:48;14.10;;;7.10;;
16979;SDS011;42288;52.182;21.156;2022-07-23T07:52:13;14.40;;;7.38;;
16979;SDS011;42288;52.182;21.156;2022-07-23T07:54:39;9.50;;;8.02;;
16979;SDS011;42288;52.182;21.156;2022-07-23T07:57:04;7.90;;;7.05;;
16979;SDS011;42288;52.182;21.156;2022-07-23T07:59:30;12.07;;;7.07;;
16979;SDS011;42288;52.182;21.156;2022-07-23T08:01:55;10.27;;;7.57;;
16979;SDS011;42288;52.182;21.156;2022-07-23T08:04:21;9.43;;;7.80;;
16979;SDS011;42288;52.182;21.156;2022-07-23T08:06:47;11.48;;;7.28;;
16979;SDS011;42288;52.182;21.156;2022-07-23T08:09:12;10.43;;;7.57;;
16979;SDS011;42288;52.182;21.156;2022-07-23T08:11:38;13.48;;;6.93;;
16979;SDS011;42288;52.182;21.156;2022-07-23T08:14:03;9.32;;;7.00;;
16979;SDS011;42288;52.182;21.156;2022-07-23T08:16:29;15.70;;;7.20;;
16979;SDS011;42288;52.182;21.156;2022-07-23T08:18:54;9.13;;;6.40;;
16979;SDS011;42288;52.182;21.156;2022-07-23T08:21:20;12.57;;;7.68;;
16979;SDS011;42288;52.182;21.156;2022-07-23T08:23:46;8.73;;;6.93;;
16979;SDS011;42288;52.182;21.156;2022-07-23T08:26:11;9.40;;;6.68;;
16979;SDS011;42288;52.182;21.156;2022-07-23T08:28:37;9.13;;;6.90;;
16979;SDS011;42288;52.182;21.156;2022-07-23T08:31:02;10.85;;;7.20;;
16979;SDS011;42288;52.182;21.156;2022-07-23T08:33:30;9.68;;;6.95;;
16979;SDS011;42288;52.182;21.156;2022-07-23T08:35:56;10.90;;;7.38;;
16979;SDS011;42288;52.182;21.156;2022-07-23T08:38:22;10.68;;;6.82;;
16979;SDS011;42288;52.182;21.156;2022-07-23T08:40:49;11.32;;;7.20;;
16979;SDS011;42288;52.182;21.156;2022-07-23T08:43:17;12.70;;;7.10;;
16979;SDS011;42288;52.182;21.156;2022-07-23T08:45:53;10.48;;;7.05;;
16979;SDS011;42288;52.182;21.156;2022-07-23T08:48:24;10.38;;;7.25;;
16979;SDS011;42288;52.182;21.156;2022-07-23T08:50:52;9.40;;;7.07;;
16979;SDS011;42288;52.182;21.156;2022-07-23T08:53:21;7.75;;;6.70;;
16979;SDS011;42288;52.182;21.156;2022-07-23T08:55:48;9.95;;;7.57;;
16979;SDS011;42288;52.182;21.156;2022-07-23T08:58:18;9.18;;;6.93;;
16979;SDS011;42288;52.182;21.156;2022-07-23T09:00:44;10.52;;;7.40;;
16979;SDS011;42288;52.182;21.156;2022-07-23T09:03:15;8.82;;;7.00;;
16979;SDS011;42288;52.182;21.156;2022-07-23T09:05:49;8.68;;;6.50;;
16979;SDS011;42288;52.182;21.156;2022-07-23T09:08:16;8.73;;;6.15;;
16979;SDS011;42288;52.182;21.156;2022-07-23T09:10:45;14.07;;;7.43;;
16979;SDS011;42288;52.182;21.156;2022-07-23T09:16:11;11.93;;;6.03;;
16979;SDS011;42288;52.182;21.156;2022-07-23T09:23:56;7.32;;;5.60;;
16979;SDS011;42288;52.182;21.156;2022-07-23T09:26:36;10.27;;;5.50;;
16979;SDS011;42288;52.182;21.156;2022-07-23T09:29:06;7.72;;;5.80;;
16979;SDS011;42288;52.182;21.156;2022-07-23T09:31:48;9.13;;;6.60;;
16979;SDS011;42288;52.182;21.156;2022-07-23T09:36:52;11.98;;;6.50;;
16979;SDS011;42288;52.182;21.156;2022-07-23T09:39:32;10.93;;;7.20;;
16979;SDS011;42288;52.182;21.156;2022-07-23T09:42:12;10.73;;;7.00;;
16979;SDS011;42288;52.182;21.156;2022-07-23T09:44:41;9.20;;;7.20;;
16979;SDS011;42288;52.182;21.156;2022-07-23T09:47:11;8.02;;;6.80;;
16979;SDS011;42288;52.182;21.156;2022-07-23T09:49:37;11.07;;;7.00;;
16979;SDS011;42288;52.182;21.156;2022-07-23T09:52:03;9.52;;;6.63;;
16979;SDS011;42288;52.182;21.156;2022-07-23T09:54:33;11.10;;;6.80;;
16979;SDS011;42288;52.182;21.156;2022-07-23T09:57:02;9.95;;;6.28;;
16979;SDS011;42288;52.182;21.156;2022-07-23T09:59:31;10.60;;;6.57;;
16979;SDS011;42288;52.182;21.156;2022-07-23T10:01:59;9.35;;;6.90;;
16979;SDS011;42288;52.182;21.156;2022-07-23T10:04:26;9.63;;;6.40;;
16979;SDS011;42288;52.182;21.156;2022-07-23T10:06:54;14.68;;;6.38;;
16979;SDS011;42288;52.182;21.156;2022-07-23T10:09:22;9.60;;;6.30;;
16979;SDS011;42288;52.182;21.156;2022-07-23T10:11:49;12.75;;;6.80;;
16979;SDS011;42288;52.182;21.156;2022-07-23T10:14:16;10.27;;;6.35;;
16979;SDS011;42288;52.182;21.156;2022-07-23T10:16:43;12.25;;;6.65;;
16979;SDS011;42288;52.182;21.156;2022-07-23T10:19:09;8.82;;;6.53;;
16979;SDS011;42288;52.182;21.156;2022-07-23T10:21:48;11.82;;;6.50;;
16979;SDS011;42288;52.182;21.156;2022-07-23T10:24:36;9.90;;;6.20;;
16979;SDS011;42288;52.182;21.156;2022-07-23T10:27:27;6.88;;;6.13;;
16979;SDS011;42288;52.182;21.156;2022-07-23T10:30:06;11.90;;;6.78;;
16979;SDS011;42288;52.182;21.156;2022-07-23T10:35:24;10.18;;;7.00;;
16979;SDS011;42288;52.182;21.156;2022-07-23T10:38:02;15.00;;;6.78;;
16979;SDS011;42288;52.182;21.156;2022-07-23T10:40:36;8.88;;;5.85;;
16979;SDS011;42288;52.182;21.156;2022-07-23T10:43:01;11.25;;;6.57;;
16979;SDS011;42288;52.182;21.156;2022-07-23T10:45:37;11.68;;;6.78;;
16979;SDS011;42288;52.182;21.156;2022-07-23T10:50:39;10.50;;;6.35;;
16979;SDS011;42288;52.182;21.156;2022-07-23T10:57:59;7.45;;;6.47;;
16979;SDS011;42288;52.182;21.156;2022-07-23T11:00:29;8.15;;;6.10;;
16979;SDS011;42288;52.182;21.156;2022-07-23T11:02:57;7.60;;;5.93;;
16979;SDS011;42288;52.182;21.156;2022-07-23T11:05:48;11.38;;;6.68;;
16979;SDS011;42288;52.182;21.156;2022-07-23T11:08:14;8.10;;;6.03;;
16979;SDS011;42288;52.182;21.156;2022-07-23T11:13:40;8.25;;;5.93;;
16979;SDS011;42288;52.182;21.156;2022-07-23T11:16:17;9.70;;;5.68;;
16979;SDS011;42288;52.182;21.156;2022-07-23T11:27:13;7.07;;;5.88;;
16979;SDS011;42288;52.182;21.156;2022-07-23T11:31:57;9.63;;;5.93;;
16979;SDS011;42288;52.182;21.156;2022-07-23T11:34:42;5.75;;;5.20;;
16979;SDS011;42288;52.182;21.156;2022-07-23T11:37:11;9.73;;;5.97;;
16979;SDS011;42288;52.182;21.156;2022-07-23T11:39:52;7.80;;;5.97;;
16979;SDS011;42288;52.182;21.156;2022-07-23T11:42:20;7.30;;;5.45;;
16979;SDS011;42288;52.182;21.156;2022-07-23T11:44:46;7.40;;;5.47;;
16979;SDS011;42288;52.182;21.156;2022-07-23T11:47:12;11.48;;;5.63;;
16979;SDS011;42288;52.182;21.156;2022-07-23T11:49:39;6.93;;;5.10;;
16979;SDS011;42288;52.182;21.156;2022-07-23T11:52:20;5.57;;;4.80;;
16979;SDS011;42288;52.182;21.156;2022-07-23T11:54:51;8.57;;;5.40;;
16979;SDS011;42288;52.182;21.156;2022-07-23T11:57:26;6.65;;;5.22;;
16979;SDS011;42288;52.182;21.156;2022-07-23T11:59:58;6.30;;;5.30;;
16979;SDS011;42288;52.182;21.156;2022-07-23T12:02:30;7.22;;;5.43;;
16979;SDS011;42288;52.182;21.156;2022-07-23T12:04:55;7.18;;;5.40;;
16979;SDS011;42288;52.182;21.156;2022-07-23T12:12:36;8.23;;;5.30;;
16979;SDS011;42288;52.182;21.156;2022-07-23T12:15:12;7.85;;;6.38;;
16979;SDS011;42288;52.182;21.156;2022-07-23T12:17:39;9.23;;;6.07;;
16979;SDS011;42288;52.182;21.156;2022-07-23T12:20:09;7.85;;;5.93;;
16979;SDS011;42288;52.182;21.156;2022-07-23T12:22:42;6.45;;;5.40;;
16979;SDS011;42288;52.182;21.156;2022-07-23T12:25:10;8.07;;;5.90;;
16979;SDS011;42288;52.182;21.156;2022-07-23T12:27:38;6.50;;;5.78;;
16979;SDS011;42288;52.182;21.156;2022-07-23T12:32:54;7.03;;;5.75;;
16979;SDS011;42288;52.182;21.156;2022-07-23T12:35:21;7.60;;;6.25;;
16979;SDS011;42288;52.182;21.156;2022-07-23T12:37:49;6.72;;;5.85;;
16979;SDS011;42288;52.182;21.156;2022-07-23T12:40:30;9.02;;;5.93;;
16979;SDS011;42288;52.182;21.156;2022-07-23T12:42:57;8.45;;;5.68;;
16979;SDS011;42288;52.182;21.156;2022-07-23T12:45:26;8.10;;;5.10;;
16979;SDS011;42288;52.182;21.156;2022-07-23T12:48:01;8.05;;;5.70;;
16979;SDS011;42288;52.182;21.156;2022-07-23T12:50:41;7.28;;;5.65;;
16979;SDS011;42288;52.182;21.156;2022-07-23T12:53:08;6.43;;;5.30;;
16979;SDS011;42288;52.182;21.156;2022-07-23T12:55:39;9.23;;;5.90;;
16979;SDS011;42288;52.182;21.156;2022-07-23T12:58:07;12.45;;;5.97;;
16979;SDS011;42288;52.182;21.156;2022-07-23T13:00:55;8.02;;;6.00;;
16979;SDS011;42288;52.182;21.156;2022-07-23T13:03:29;7.25;;;6.20;;
16979;SDS011;42288;52.182;21.156;2022-07-23T13:06:03;9.80;;;5.97;;
16979;SDS011;42288;52.182;21.156;2022-07-23T13:08:31;6.22;;;5.40;;
16979;SDS011;42288;52.182;21.156;2022-07-23T13:10:58;6.65;;;5.95;;
16979;SDS011;42288;52.182;21.156;2022-07-23T13:13:24;6.65;;;5.93;;
16979;SDS011;42288;52.182;21.156;2022-07-23T13:15:51;7.15;;;5.78;;
16979;SDS011;42288;52.182;21.156;2022-07-23T13:18:18;7.65;;;6.47;;
16979;SDS011;42288;52.182;21.156;2022-07-23T13:20:45;8.32;;;6.07;;
16979;SDS011;42288;52.182;21.156;2022-07-23T13:23:12;8.77;;;6.18;;
16979;SDS011;42288;52.182;21.156;2022-07-23T13:25:38;9.43;;;6.63;;
16979;SDS011;42288;52.182;21.156;2022-07-23T13:28:04;8.02;;;6.15;;
16979;SDS011;42288;52.182;21.156;2022-07-23T13:30:30;7.05;;;6.35;;
16979;SDS011;42288;52.182;21.156;2022-07-23T13:32:55;7.00;;;6.30;;
16979;SDS011;42288;52.182;21.156;2022-07-23T13:35:21;8.15;;;6.25;;
16979;SDS011;42288;52.182;21.156;2022-07-23T13:37:47;6.93;;;6.22;;
16979;SDS011;42288;52.182;21.156;2022-07-23T13:40:13;9.05;;;6.03;;
16979;SDS011;42288;52.182;21.156;2022-07-23T13:42:38;6.88;;;5.75;;
16979;SDS011;42288;52.182;21.156;2022-07-23T13:45:04;8.48;;;6.40;;
16979;SDS011;42288;52.182;21.156;2022-07-23T13:47:31;7.57;;;5.85;;
16979;SDS011;42288;52.182;21.156;2022-07-23T13:49:56;11.32;;;6.65;;
16979;SDS011;42288;52.182;21.156;2022-07-23T13:52:22;10.45;;;6.50;;
16979;SDS011;42288;52.182;21.156;2022-07-23T13:54:47;8.77;;;6.47;;
16979;SDS011;42288;52.182;21.156;2022-07-23T13:57:13;9.65;;;5.93;;
16979;SDS011;42288;52.182;21.156;2022-07-23T13:59:39;7.10;;;6.40;;
16979;SDS011;42288;52.182;21.156;2022-07-23T14:02:05;13.63;;;6.25;;
16979;SDS011;42288;52.182;21.156;2022-07-23T14:04:31;7.72;;;5.80;;
16979;SDS011;42288;52.182;21.156;2022-07-23T14:06:56;7.28;;;6.20;;
16979;SDS011;42288;52.182;21.156;2022-07-23T14:09:22;7.28;;;6.45;;
16979;SDS011;42288;52.182;21.156;2022-07-23T14:11:48;14.52;;;6.53;;
16979;SDS011;42288;52.182;21.156;2022-07-23T14:14:15;9.63;;;6.03;;
16979;SDS011;42288;52.182;21.156;2022-07-23T14:16:42;9.18;;;6.22;;
16979;SDS011;42288;52.182;21.156;2022-07-23T14:19:07;7.35;;;6.50;;
16979;SDS011;42288;52.182;21.156;2022-07-23T14:21:33;6.75;;;6.05;;
16979;SDS011;42288;52.182;21.156;2022-07-23T14:23:58;7.35;;;6.43;;
16979;SDS011;42288;52.182;21.156;2022-07-23T14:26:24;10.73;;;6.43;;
16979;SDS011;42288;52.182;21.156;2022-07-23T14:28:49;13.00;;;6.20;;
16979;SDS011;42288;52.182;21.156;2022-07-23T14:31:15;9.95;;;6.47;;
16979;SDS011;42288;52.182;21.156;2022-07-23T14:33:41;10.48;;;6.25;;
16979;SDS011;42288;52.182;21.156;2022-07-23T14:36:06;10.70;;;6.22;;
16979;SDS011;42288;52.182;21.156;2022-07-23T14:38:32;10.80;;;6.93;;
16979;SDS011;42288;52.182;21.156;2022-07-23T14:40:57;8.77;;;6.13;;
16979;SDS011;42288;52.182;21.156;2022-07-23T14:43:23;7.38;;;5.55;;
16979;SDS011;42288;52.182;21.156;2022-07-23T14:45:48;8.13;;;6.65;;
16979;SDS011;42288;52.182;21.156;2022-07-23T14:48:14;7.35;;;6.65;;
16979;SDS011;42288;52.182;21.156;2022-07-23T14:50:39;9.02;;;6.38;;
16979;SDS011;42288;52.182;21.156;2022-07-23T14:53:05;55.50;;;8.68;;
16979;SDS011;42288;52.182;21.156;2022-07-23T14:55:31;46.40;;;7.38;;
16979;SDS011;42288;52.182;21.156;2022-07-23T14:57:57;48.55;;;7.40;;
16979;SDS011;42288;52.182;21.156;2022-07-23T15:00:23;43.63;;;7.78;;
16979;SDS011;42288;52.182;21.156;2022-07-23T15:02:48;35.00;;;6.55;;